Main page
METAR-TAF:

METAR-TAF

Airports :

Goeree Le, Netherlands

Oil platform

latitude: 51-55-33N, longitude: 3-40-12E, elevation: 19 m

Current weather observation

The report was made 48 minutes ago, at 17:55 UTC
Wind 20 kt from the East/Northeast with gusts up to 21 kt
Temperature 9°C
Humidity 81%
Pressure 1023 hPa
Visibility 10 km or more

METAR: EHSC 261755Z AUTO 06020G21KT 9999 ///////// 09/06 Q1023 W08/H6

Time: 20:43 (18:43 UTC)


TAF: missing

Weather observations and forecasts of more than 4000 airports (METAR and TAF reports).

The available stations are represented by yellow and red dots on the map.

Hover mouse over dot to see the name of the station.

Then click to see weather observations and forecasts.

To change the map : click on the green buttons with a black cross to zoom in, on the green button with a dash to zoom out, or on the green arrows for adjacent maps.


METAR-TAF: